createdAt,value
2018-03-24T00:00:15.460Z,-3.07
2018-03-24T00:02:44.111Z,-3.29
2018-03-24T00:05:12.650Z,-3.18
2018-03-24T00:07:41.084Z,-3.20
2018-03-24T00:10:09.489Z,-3.10
2018-03-24T00:12:37.945Z,-3.18
2018-03-24T00:15:06.351Z,-3.14
2018-03-24T00:17:34.800Z,-3.13
2018-03-24T00:20:03.218Z,-3.32
2018-03-24T00:22:31.606Z,-3.25
2018-03-24T00:25:00.061Z,-3.33
2018-03-24T00:27:28.458Z,-3.15
2018-03-24T00:29:56.928Z,-3.37
2018-03-24T00:32:25.309Z,-2.87
2018-03-24T00:34:53.676Z,-3.24
2018-03-24T00:37:22.101Z,-3.02
2018-03-24T00:39:50.456Z,-3.04
2018-03-24T00:42:18.881Z,-2.91
2018-03-24T00:44:47.352Z,-3.10
2018-03-24T00:47:15.782Z,-2.99
2018-03-24T00:49:44.166Z,-3.26
2018-03-24T00:52:12.602Z,-3.32
2018-03-24T00:54:41.014Z,-3.00
2018-03-24T00:57:09.458Z,-3.23
2018-03-24T00:59:37.842Z,-2.88
2018-03-24T01:02:06.238Z,-2.98
2018-03-24T01:04:34.625Z,-3.12
2018-03-24T01:07:03.069Z,-2.82
2018-03-24T01:09:31.493Z,-2.77
2018-03-24T01:11:59.894Z,-2.71
2018-03-24T01:14:28.351Z,-2.93
2018-03-24T01:16:56.757Z,-2.67
2018-03-24T01:19:25.151Z,-2.95
2018-03-24T01:21:53.578Z,-2.98
2018-03-24T01:24:22.005Z,-3.05
2018-03-24T01:26:50.425Z,-2.98
2018-03-24T01:29:18.804Z,-3.54
2018-03-24T01:31:47.225Z,-2.98
2018-03-24T01:34:15.578Z,-2.89
2018-03-24T01:36:43.979Z,-3.45
2018-03-24T01:39:12.395Z,-2.96
2018-03-24T01:41:40.952Z,-2.89
2018-03-24T01:44:09.305Z,-2.87
2018-03-24T01:46:37.873Z,-3.05
2018-03-24T01:49:06.245Z,-3.00
2018-03-24T01:51:34.661Z,-3.05
2018-03-24T01:54:03.048Z,-2.90
2018-03-24T01:56:31.436Z,-3.04
2018-03-24T01:58:59.826Z,-2.93
2018-03-24T02:01:28.228Z,-2.78
2018-03-24T02:03:56.624Z,-3.04
2018-03-24T02:06:25.006Z,-3.07
2018-03-24T02:08:53.421Z,-2.93
2018-03-24T02:11:21.817Z,-2.74
2018-03-24T02:13:50.280Z,-2.84
2018-03-24T02:16:18.646Z,-2.75
2018-03-24T02:18:47.057Z,-2.49
2018-03-24T02:21:31.040Z,-2.84
2018-03-24T02:23:59.440Z,-2.74
2018-03-24T02:26:27.808Z,-3.03
2018-03-24T02:28:56.211Z,-2.87
2018-03-24T02:31:24.601Z,-2.98
2018-03-24T02:33:53.009Z,-3.74
2018-03-24T02:36:21.389Z,-2.82
2018-03-24T02:38:49.813Z,-3.09
2018-03-24T02:41:18.219Z,-3.20
2018-03-24T02:43:46.589Z,-2.97
2018-03-24T02:46:15.100Z,-3.16
2018-03-24T02:48:43.568Z,-3.03
2018-03-24T02:51:11.978Z,-2.89
2018-03-24T02:53:40.385Z,-2.94
2018-03-24T02:56:08.805Z,-2.81
2018-03-24T02:58:37.236Z,-3.09
2018-03-24T03:01:05.666Z,-3.19
2018-03-24T03:03:34.086Z,-2.73
2018-03-24T03:06:02.490Z,-2.72
2018-03-24T03:08:30.965Z,-2.67
2018-03-24T03:10:59.357Z,-2.60
2018-03-24T03:13:27.748Z,-2.92
2018-03-24T03:15:56.180Z,-2.58
2018-03-24T03:18:24.548Z,-2.55
2018-03-24T03:20:52.982Z,-2.55
2018-03-24T03:23:21.625Z,-2.43
2018-03-24T03:25:50.044Z,-2.76
2018-03-24T03:28:18.486Z,-2.77
2018-03-24T03:30:47.441Z,-2.64
2018-03-24T03:33:15.872Z,-2.68
2018-03-24T03:35:44.239Z,-2.85
2018-03-24T03:38:12.619Z,-2.48
2018-03-24T03:40:41.095Z,-2.61
2018-03-24T03:43:09.606Z,-3.29
2018-03-24T03:45:38.032Z,-2.90
2018-03-24T03:48:06.395Z,-2.89
2018-03-24T03:50:34.818Z,-2.79
2018-03-24T03:53:03.330Z,-2.72
2018-03-24T03:55:31.739Z,-2.63
2018-03-24T03:58:00.121Z,-2.46
2018-03-24T04:00:28.520Z,-2.50
2018-03-24T04:02:56.903Z,-2.55
2018-03-24T04:05:25.328Z,-2.45
2018-03-24T04:07:53.712Z,-2.88
2018-03-24T04:10:22.151Z,-2.67
2018-03-24T04:12:50.542Z,-2.32
2018-03-24T04:15:18.921Z,-2.67
2018-03-24T04:17:47.376Z,-2.44
2018-03-24T04:20:15.988Z,-2.33
2018-03-24T04:22:44.361Z,-2.46
2018-03-24T04:25:12.752Z,-2.59
2018-03-24T04:27:41.241Z,-2.54
2018-03-24T04:30:09.655Z,-2.56
2018-03-24T04:32:38.024Z,-2.78
2018-03-24T04:35:06.440Z,-2.77
2018-03-24T04:37:34.819Z,-2.71
2018-03-24T04:40:03.266Z,-2.68
2018-03-24T04:42:31.648Z,-2.66
2018-03-24T04:45:00.080Z,-2.85
2018-03-24T04:47:28.487Z,-2.70
2018-03-24T04:49:56.905Z,-2.60
2018-03-24T04:52:25.338Z,-2.81
2018-03-24T04:54:53.785Z,-2.72
2018-03-24T04:57:22.164Z,-2.66
2018-03-24T04:59:50.586Z,-2.85
2018-03-24T05:02:19.045Z,-2.73
2018-03-24T05:04:47.425Z,-2.52
2018-03-24T05:07:15.861Z,-3.07
2018-03-24T05:09:44.317Z,-2.91
2018-03-24T05:12:12.705Z,-2.95
2018-03-24T05:14:41.109Z,-2.49
2018-03-24T05:17:09.529Z,-2.47
2018-03-24T05:19:38.017Z,-2.59
2018-03-24T05:22:06.419Z,-2.66
2018-03-24T05:24:34.787Z,-2.17
2018-03-24T05:27:03.233Z,-1.95
2018-03-24T05:29:31.632Z,-2.10
2018-03-24T05:32:00.034Z,-2.00
2018-03-24T05:34:28.479Z,-1.98
2018-03-24T05:36:56.916Z,-2.44
2018-03-24T05:39:25.424Z,-1.85
2018-03-24T05:41:53.784Z,-1.50
2018-03-24T05:44:22.155Z,-1.26
2018-03-24T05:46:50.626Z,-1.32
2018-03-24T05:49:18.996Z,-1.62
2018-03-24T05:51:47.424Z,-1.73
2018-03-24T05:54:15.799Z,-1.49
2018-03-24T05:56:44.246Z,-1.97
2018-03-24T05:59:12.644Z,-1.91
2018-03-24T06:01:41.079Z,-1.43
2018-03-24T06:04:09.484Z,-1.39
2018-03-24T06:06:38.076Z,-1.02
2018-03-24T06:09:06.488Z,-1.16
2018-03-24T06:11:34.901Z,-1.08
2018-03-24T06:14:03.272Z,-1.07
2018-03-24T06:16:31.661Z,-1.04
2018-03-24T06:19:00.204Z,-1.59
2018-03-24T06:21:28.575Z,-1.03
2018-03-24T06:23:56.948Z,-1.10
2018-03-24T06:26:25.368Z,-1.08
2018-03-24T06:28:53.810Z,-0.87
2018-03-24T06:34:23.481Z,-0.14
2018-03-24T06:36:51.908Z,0.02
2018-03-24T06:39:20.406Z,0.11
2018-03-24T06:41:48.832Z,0.03
2018-03-24T06:44:17.256Z,-0.56
2018-03-24T06:46:45.646Z,-0.36
2018-03-24T06:49:14.276Z,-0.36
2018-03-24T06:51:42.769Z,-0.61
2018-03-24T06:54:11.196Z,-0.45
2018-03-24T06:56:39.918Z,-0.19
2018-03-24T06:59:09.058Z,-0.59
2018-03-24T07:01:37.814Z,0.28
2018-03-24T07:04:06.550Z,0.06
2018-03-24T07:06:35.476Z,0.28
2018-03-24T07:09:05.354Z,0.64
2018-03-24T07:11:35.039Z,0.27
2018-03-24T07:14:03.528Z,-0.32
2018-03-24T07:16:31.949Z,0.62
2018-03-24T07:19:01.176Z,1.09
2018-03-24T07:21:29.540Z,1.38
2018-03-24T07:23:57.960Z,1.52
2018-03-24T07:26:26.720Z,1.33
2018-03-24T07:28:55.147Z,1.54
2018-03-24T07:31:23.754Z,1.38
2018-03-24T07:33:52.660Z,2.17
2018-03-24T07:36:21.058Z,1.75
2018-03-24T07:38:49.427Z,2.45
2018-03-24T07:41:17.919Z,2.29
2018-03-24T07:43:46.306Z,2.15
2018-03-24T07:46:14.680Z,1.63
2018-03-24T07:48:44.276Z,1.68
2018-03-24T07:51:12.629Z,2.15
2018-03-24T07:53:41.163Z,3.10
2018-03-24T07:56:10.137Z,3.28
2018-03-24T07:58:38.512Z,3.48
2018-03-24T08:01:06.901Z,2.77
2018-03-24T08:03:35.686Z,2.99
2018-03-24T08:06:04.060Z,2.63
2018-03-24T08:08:32.445Z,2.42
2018-03-24T08:11:01.240Z,1.80
2018-03-24T08:13:29.647Z,2.39
2018-03-24T08:15:58.001Z,3.03
2018-03-24T08:18:26.581Z,3.78
2018-03-24T08:20:54.956Z,3.67
2018-03-24T08:23:24.102Z,3.87
2018-03-24T08:25:52.846Z,4.48
2018-03-24T08:28:21.281Z,5.19
2018-03-24T08:30:49.654Z,5.35
2018-03-24T08:33:18.423Z,4.10
2018-03-24T08:35:46.788Z,4.53
2018-03-24T08:38:15.149Z,4.12
2018-03-24T08:40:43.938Z,4.66
2018-03-24T08:43:12.329Z,5.33
2018-03-24T08:45:40.701Z,5.88
2018-03-24T08:48:09.282Z,5.66
2018-03-24T08:50:37.653Z,5.28
2018-03-24T08:53:06.069Z,5.75
2018-03-24T08:55:34.806Z,6.06
2018-03-24T08:58:03.420Z,5.06
2018-03-24T09:00:32.052Z,5.31
2018-03-24T09:03:00.793Z,6.13
2018-03-24T09:05:29.172Z,6.22
2018-03-24T09:07:57.738Z,5.58
2018-03-24T09:10:26.549Z,6.03
2018-03-24T09:12:54.925Z,4.85
2018-03-24T09:15:23.340Z,6.05
2018-03-24T09:17:51.756Z,6.50
2018-03-24T09:20:20.137Z,6.58
2018-03-24T09:22:48.505Z,6.61
2018-03-24T09:25:17.325Z,6.77
2018-03-24T09:27:45.747Z,7.08
2018-03-24T09:30:14.144Z,7.17
2018-03-24T09:32:42.590Z,6.85
2018-03-24T09:35:11.004Z,7.03
2018-03-24T09:37:39.361Z,6.25
2018-03-24T09:40:08.016Z,6.23
2018-03-24T09:42:36.369Z,6.57
2018-03-24T09:45:04.872Z,6.58
2018-03-24T09:47:33.291Z,6.33
2018-03-24T09:50:01.696Z,6.63
2018-03-24T09:52:30.149Z,6.67
2018-03-24T09:54:58.544Z,6.44
2018-03-24T09:57:26.934Z,6.37
2018-03-24T09:59:55.304Z,6.41
2018-03-24T10:02:24.139Z,6.30
2018-03-24T10:04:52.559Z,5.83
2018-03-24T10:07:20.934Z,5.90
2018-03-24T10:09:49.397Z,5.85
2018-03-24T10:12:17.788Z,5.74
2018-03-24T10:14:46.147Z,5.75
2018-03-24T10:17:14.943Z,5.28
2018-03-24T10:19:43.304Z,5.95
2018-03-24T10:25:18.172Z,6.93
2018-03-24T10:27:46.954Z,6.46
2018-03-24T10:30:15.317Z,5.98
2018-03-24T10:32:43.715Z,6.23
2018-03-24T10:35:12.410Z,5.87
2018-03-24T10:37:46.274Z,5.68
2018-03-24T10:40:14.902Z,5.34
2018-03-24T10:45:42.879Z,4.74
2018-03-24T10:48:11.307Z,4.92
2018-03-24T10:50:39.742Z,5.03
2018-03-24T10:53:08.178Z,5.07
2018-03-24T10:55:36.548Z,5.07
2018-03-24T10:58:04.948Z,5.41
2018-03-24T11:00:33.429Z,5.21
2018-03-24T11:03:01.934Z,5.88
2018-03-24T11:05:30.337Z,5.84
2018-03-24T11:07:59.068Z,5.91
2018-03-24T11:10:28.608Z,5.70
2018-03-24T11:12:56.980Z,5.71
2018-03-24T11:15:25.405Z,5.80
2018-03-24T11:17:53.788Z,6.16
2018-03-24T11:20:22.146Z,6.27
2018-03-24T11:22:50.876Z,6.41
2018-03-24T11:25:19.584Z,6.78
2018-03-24T11:27:47.968Z,6.24
2018-03-24T11:30:16.655Z,6.24
2018-03-24T11:32:45.109Z,6.11
2018-03-24T11:35:13.482Z,5.70
2018-03-24T11:37:42.128Z,5.45
2018-03-24T11:40:10.497Z,5.66
2018-03-24T11:42:38.885Z,5.84
2018-03-24T11:45:07.621Z,5.78
2018-03-24T11:47:36.013Z,5.52
2018-03-24T11:50:04.372Z,5.63
2018-03-24T11:52:33.136Z,5.18
2018-03-24T11:55:01.543Z,4.99
2018-03-24T11:57:29.936Z,5.12
2018-03-24T12:00:03.946Z,5.14
2018-03-24T12:02:32.309Z,4.59
2018-03-24T12:05:00.720Z,4.51
2018-03-24T12:07:29.481Z,4.49
2018-03-24T12:09:57.889Z,4.81
2018-03-24T12:12:26.276Z,4.81
2018-03-24T12:14:54.697Z,5.08
2018-03-24T12:17:23.093Z,5.44
2018-03-24T12:19:51.456Z,5.60
2018-03-24T12:22:20.032Z,5.58
2018-03-24T12:24:48.408Z,5.01
2018-03-24T12:27:16.763Z,5.11
2018-03-24T12:29:45.582Z,4.82
2018-03-24T12:32:13.944Z,4.57
2018-03-24T12:34:42.328Z,4.78
2018-03-24T12:37:10.912Z,4.84
2018-03-24T12:39:39.297Z,4.41
2018-03-24T12:42:07.653Z,4.37
2018-03-24T12:44:36.059Z,4.64
2018-03-24T12:47:04.434Z,4.63
2018-03-24T12:49:32.823Z,4.74
2018-03-24T12:52:01.500Z,4.88
2018-03-24T12:54:29.933Z,4.96
2018-03-24T12:56:58.308Z,5.03
2018-03-24T12:59:27.148Z,5.06
2018-03-24T13:01:55.526Z,5.01
2018-03-24T13:04:23.905Z,4.97
2018-03-24T13:06:52.660Z,4.91
2018-03-24T13:09:21.042Z,4.81
2018-03-24T13:11:49.542Z,4.86
2018-03-24T13:14:18.154Z,5.01
2018-03-24T13:16:46.503Z,4.40
2018-03-24T13:19:14.852Z,4.51
2018-03-24T13:21:43.497Z,4.77
2018-03-24T13:24:11.849Z,4.62
2018-03-24T13:26:40.203Z,4.51
2018-03-24T13:29:08.823Z,4.07
2018-03-24T13:31:37.185Z,4.37
2018-03-24T13:34:05.536Z,4.41
2018-03-24T13:36:34.175Z,4.61
2018-03-24T13:39:02.587Z,4.29
2018-03-24T13:41:31.050Z,4.40
2018-03-24T13:43:59.774Z,4.60
2018-03-24T13:46:28.151Z,4.14
2018-03-24T13:48:56.504Z,4.21
2018-03-24T13:51:25.275Z,4.02
2018-03-24T13:53:53.686Z,3.89
2018-03-24T13:56:22.089Z,3.89
2018-03-24T13:58:50.812Z,3.79
2018-03-24T14:01:19.185Z,3.76
2018-03-24T14:03:47.549Z,3.77
2018-03-24T14:06:16.360Z,3.68
2018-03-24T14:08:44.738Z,3.36
2018-03-24T14:11:13.116Z,3.34
2018-03-24T14:13:41.909Z,3.10
2018-03-24T14:16:10.496Z,2.97
2018-03-24T14:18:38.924Z,3.19
2018-03-24T14:21:07.341Z,2.95
2018-03-24T14:23:35.764Z,3.03
2018-03-24T14:26:04.159Z,3.25
2018-03-24T14:28:32.901Z,3.06
2018-03-24T14:31:01.307Z,3.09
2018-03-24T14:33:29.764Z,3.27
2018-03-24T14:35:58.348Z,2.99
2018-03-24T14:38:26.713Z,2.31
2018-03-24T14:40:55.117Z,2.26
2018-03-24T14:43:23.920Z,2.31
2018-03-24T14:45:52.273Z,2.30
2018-03-24T14:48:20.628Z,2.19
2018-03-24T14:50:49.256Z,2.10
2018-03-24T14:53:17.617Z,1.75
2018-03-24T14:55:45.983Z,1.81
2018-03-24T14:58:14.790Z,1.85
2018-03-24T15:00:43.156Z,1.41
2018-03-24T15:03:11.536Z,1.25
2018-03-24T15:05:39.966Z,1.19
2018-03-24T15:08:08.321Z,1.17
2018-03-24T15:10:36.695Z,1.37
2018-03-24T15:13:05.100Z,1.33
2018-03-24T15:15:33.502Z,1.10
2018-03-24T15:18:01.892Z,1.07
2018-03-24T15:20:30.616Z,0.79
2018-03-24T15:22:58.972Z,0.87
2018-03-24T15:25:27.345Z,0.90
2018-03-24T15:27:55.967Z,0.99
2018-03-24T15:30:36.200Z,0.87
2018-03-24T15:33:16.796Z,0.96
2018-03-24T15:35:56.950Z,0.89
2018-03-24T15:38:25.750Z,1.14
2018-03-24T15:40:54.118Z,1.18
2018-03-24T15:43:22.993Z,1.15
2018-03-24T15:45:51.789Z,1.05
2018-03-24T15:48:20.180Z,1.06
2018-03-24T15:50:48.586Z,1.09
2018-03-24T15:53:17.254Z,1.12
2018-03-24T15:55:45.667Z,1.06
2018-03-24T15:58:14.076Z,0.94
2018-03-24T16:00:42.860Z,0.96
2018-03-24T16:03:11.276Z,1.01
2018-03-24T16:05:39.637Z,1.07
2018-03-24T16:08:08.074Z,1.17
2018-03-24T16:10:36.440Z,1.08
2018-03-24T16:13:04.834Z,0.97
2018-03-24T16:15:33.536Z,1.05
2018-03-24T16:18:01.916Z,1.20
2018-03-24T16:20:30.311Z,1.18
2018-03-24T16:22:58.915Z,1.19
2018-03-24T16:25:27.292Z,1.35
2018-03-24T16:27:55.663Z,1.24
2018-03-24T16:30:24.268Z,1.32
2018-03-24T16:32:53.692Z,1.21
2018-03-24T16:35:24.535Z,1.39
2018-03-24T16:37:53.425Z,1.33
2018-03-24T16:40:21.827Z,0.99
2018-03-24T16:42:50.262Z,1.08
2018-03-24T16:45:18.881Z,1.17
2018-03-24T16:47:47.265Z,1.05
2018-03-24T16:50:15.647Z,1.13
2018-03-24T16:52:44.396Z,1.26
2018-03-24T16:55:12.819Z,1.24
2018-03-24T16:57:41.202Z,1.53
2018-03-24T17:00:09.993Z,1.64
2018-03-24T17:02:38.417Z,1.78
2018-03-24T17:05:06.805Z,1.73
2018-03-24T17:07:35.220Z,1.63
2018-03-24T17:10:03.766Z,1.50
2018-03-24T17:12:32.164Z,1.73
2018-03-24T17:15:00.958Z,1.66
2018-03-24T17:17:29.474Z,1.57
2018-03-24T17:19:57.848Z,1.59
2018-03-24T17:22:26.569Z,1.68
2018-03-24T17:24:55.012Z,1.51
2018-03-24T17:27:23.417Z,1.58
2018-03-24T17:29:51.865Z,1.75
2018-03-24T17:32:20.292Z,1.64
2018-03-24T17:34:48.685Z,1.54
2018-03-24T17:37:17.590Z,1.70
2018-03-24T17:39:45.957Z,1.57
2018-03-24T17:42:14.391Z,1.49
2018-03-24T17:44:43.138Z,1.52
2018-03-24T17:47:11.537Z,1.72
2018-03-24T17:49:39.990Z,1.77
2018-03-24T17:52:09.030Z,1.51
2018-03-24T17:54:37.444Z,1.57
2018-03-24T17:57:05.914Z,1.52
2018-03-24T17:59:34.754Z,1.52
2018-03-24T18:02:04.097Z,1.66
2018-03-24T18:04:32.565Z,1.62
2018-03-24T18:07:01.474Z,1.63
2018-03-24T18:09:29.992Z,1.64
2018-03-24T18:11:58.360Z,1.48
2018-03-24T18:14:27.186Z,1.68
2018-03-24T18:16:55.540Z,1.76
2018-03-24T18:19:23.904Z,1.77
2018-03-24T18:21:52.752Z,1.67
2018-03-24T18:24:21.168Z,1.71
2018-03-24T18:26:49.598Z,1.48
2018-03-24T18:29:18.033Z,1.64
2018-03-24T18:31:46.394Z,1.49
2018-03-24T18:34:14.793Z,1.67
2018-03-24T18:36:43.224Z,1.61
2018-03-24T18:39:11.619Z,1.78
2018-03-24T18:41:39.997Z,1.63
2018-03-24T18:44:08.452Z,1.58
2018-03-24T18:46:36.858Z,1.59
2018-03-24T18:49:05.241Z,1.58
2018-03-24T18:51:33.645Z,1.64
2018-03-24T18:54:02.085Z,1.69
2018-03-24T18:56:30.520Z,1.55
2018-03-24T18:58:58.901Z,1.59
2018-03-24T19:01:27.303Z,1.75
2018-03-24T19:03:55.777Z,1.83
2018-03-24T19:06:24.194Z,1.72
2018-03-24T19:08:52.604Z,1.81
2018-03-24T19:11:21.001Z,1.77
2018-03-24T19:13:49.485Z,1.58
2018-03-24T19:16:17.896Z,1.82
2018-03-24T19:18:46.288Z,1.69
2018-03-24T19:21:14.697Z,1.75
2018-03-24T19:23:43.273Z,1.80
2018-03-24T19:26:11.672Z,1.85
2018-03-24T19:28:40.049Z,1.95
2018-03-24T19:31:08.450Z,1.89
2018-03-24T19:33:36.856Z,1.79
2018-03-24T19:36:05.272Z,1.67
2018-03-24T19:38:33.644Z,1.68
2018-03-24T19:41:02.057Z,1.60
2018-03-24T19:43:30.419Z,1.83
2018-03-24T19:45:58.787Z,1.53
2018-03-24T19:48:27.201Z,1.66
2018-03-24T19:50:55.564Z,1.75
2018-03-24T19:53:23.954Z,1.89
2018-03-24T19:55:52.365Z,1.87
2018-03-24T19:58:20.750Z,1.78
2018-03-24T20:00:49.197Z,1.70
2018-03-24T20:03:17.697Z,1.63
2018-03-24T20:05:52.085Z,1.64
2018-03-24T20:08:20.516Z,1.63
2018-03-24T20:10:49.760Z,1.49
2018-03-24T20:13:18.130Z,1.52
2018-03-24T20:15:46.544Z,1.25
2018-03-24T20:18:14.956Z,1.16
2018-03-24T20:20:43.370Z,0.93
2018-03-24T20:23:11.734Z,0.93
2018-03-24T20:25:40.128Z,0.81
2018-03-24T20:28:08.499Z,0.83
2018-03-24T20:30:36.917Z,0.98
2018-03-24T20:33:05.285Z,0.96
2018-03-24T20:35:33.756Z,1.02
2018-03-24T20:38:02.193Z,1.02
2018-03-24T20:40:30.608Z,0.92
2018-03-24T20:42:58.990Z,0.87
2018-03-24T20:45:27.397Z,0.81
2018-03-24T20:47:55.800Z,0.77
2018-03-24T20:50:24.180Z,0.61
2018-03-24T20:52:52.606Z,0.42
2018-03-24T20:55:20.951Z,0.47
2018-03-24T20:57:49.372Z,0.24
2018-03-24T21:00:17.769Z,0.24
2018-03-24T21:02:46.193Z,0.35
2018-03-24T21:05:14.612Z,0.30
2018-03-24T21:07:43.016Z,0.29
2018-03-24T21:10:11.481Z,0.22
2018-03-24T21:12:39.938Z,0.32
2018-03-24T21:15:10.310Z,0.33
2018-03-24T21:17:38.741Z,0.13
2018-03-24T21:20:07.126Z,0.19
2018-03-24T21:22:35.559Z,0.11
2018-03-24T21:25:04.010Z,0.28
2018-03-24T21:27:32.404Z,0.17
2018-03-24T21:30:00.830Z,-0.12
2018-03-24T21:32:29.201Z,-0.10
2018-03-24T21:34:57.608Z,0.12
2018-03-24T21:37:26.026Z,-0.03
2018-03-24T21:39:54.385Z,0.00
2018-03-24T21:42:22.832Z,0.26
2018-03-24T21:44:51.209Z,0.20
2018-03-24T21:47:19.609Z,0.43
2018-03-24T21:49:48.078Z,0.34
2018-03-24T21:52:16.478Z,0.29
2018-03-24T21:54:44.857Z,0.35
2018-03-24T21:57:13.317Z,0.35
2018-03-24T21:59:41.681Z,0.58
2018-03-24T22:02:10.104Z,0.34
2018-03-24T22:04:38.486Z,0.45
2018-03-24T22:07:06.897Z,0.62
2018-03-24T22:09:35.301Z,0.71
2018-03-24T22:12:03.745Z,0.72
2018-03-24T22:14:32.512Z,0.78
2018-03-24T22:17:00.951Z,0.93
2018-03-24T22:19:29.707Z,0.79
2018-03-24T22:21:59.756Z,0.83
2018-03-24T22:24:28.453Z,0.96
2018-03-24T22:26:56.871Z,0.91
2018-03-24T22:29:25.374Z,0.84
2018-03-24T22:31:53.724Z,1.05
2018-03-24T22:34:22.222Z,0.66
2018-03-24T22:36:50.535Z,1.16
2018-03-24T22:39:19.025Z,1.01
2018-03-24T22:41:47.400Z,1.01
2018-03-24T22:44:15.820Z,1.04
2018-03-24T22:46:44.383Z,1.18
2018-03-24T22:49:12.947Z,1.19
2018-03-24T22:51:41.323Z,1.20
2018-03-24T22:54:09.753Z,1.20
2018-03-24T22:56:38.122Z,1.04
2018-03-24T22:59:06.553Z,0.83
2018-03-24T23:01:34.985Z,0.89
2018-03-24T23:04:03.380Z,0.95
2018-03-24T23:06:31.817Z,0.94
2018-03-24T23:09:00.587Z,1.01
2018-03-24T23:11:30.187Z,1.26
2018-03-24T23:13:58.680Z,1.03
2018-03-24T23:16:27.061Z,1.34
2018-03-24T23:18:55.491Z,1.40
2018-03-24T23:21:23.876Z,1.49
2018-03-24T23:23:52.260Z,1.46
2018-03-24T23:26:20.694Z,1.48
2018-03-24T23:28:49.073Z,1.47
2018-03-24T23:31:17.520Z,1.29
2018-03-24T23:33:46.789Z,1.39
2018-03-24T23:36:15.196Z,1.02
2018-03-24T23:38:43.632Z,0.97
2018-03-24T23:41:12.105Z,0.99
2018-03-24T23:43:40.532Z,1.23
2018-03-24T23:46:08.967Z,1.01
2018-03-24T23:48:37.350Z,0.91
2018-03-24T23:51:06.038Z,0.79
2018-03-24T23:53:34.491Z,0.74
2018-03-24T23:56:02.899Z,0.97
2018-03-24T23:58:31.281Z,0.93
